Appleton, Colorado
Current Conditions -  °F | °C
As of 6:53 AM on Tuesday 21 Oct 2014 (Local Time) from KGJT Reporting Station
Overcast Overcast  
Wind Chill: 56°   Ceiling: 9000
Heat Index: 56°   Visibility: 10mi
Dew Point: 37°   Wind: 15mph
Humidity: 49%   Direction: 110°ESE
Pressure: 30.04"   Gusts: NA
Location:  39.1857°N, 108.6°W
Report Text: KGJT 211253Z 11013KT 10SM OVC090 13/03 A3004 RMK AO2 SLP129 T01330028
Loading
Personal Weather Stations






























Interactive Weather Map
Tropical Storm Tracking
New forecast layout! Learn more

10-Day Weather Forecast

Advertisements
Track Severe Weather on mobile